createdAt,value
2019-06-07T00:00:59.017Z,15.26
2019-06-07T00:06:02.424Z,15.01
2019-06-07T00:11:07.646Z,15.00
2019-06-07T00:16:14.177Z,14.92
2019-06-07T00:21:17.843Z,14.91
2019-06-07T00:26:21.886Z,14.95
2019-06-07T00:31:25.294Z,14.85
2019-06-07T00:36:28.732Z,14.94
2019-06-07T00:41:32.096Z,15.03
2019-06-07T00:46:35.496Z,15.02
2019-06-07T00:51:49.922Z,15.01
2019-06-07T00:56:44.300Z,14.91
2019-06-07T01:01:48.041Z,14.71
2019-06-07T01:06:51.466Z,14.67
2019-06-07T01:11:55.018Z,14.54
2019-06-07T01:17:22.204Z,14.29
2019-06-07T01:22:03.847Z,14.26
2019-06-07T01:27:07.566Z,14.20
2019-06-07T01:32:11.017Z,14.16
2019-06-07T01:37:14.440Z,14.08
2019-06-07T01:42:19.906Z,13.89
2019-06-07T01:47:25.594Z,13.62
2019-06-07T01:52:29.744Z,13.59
2019-06-07T01:57:45.454Z,13.67
2019-06-07T02:02:38.460Z,13.64
2019-06-07T02:07:41.809Z,13.55
2019-06-07T02:12:45.200Z,13.57
2019-06-07T02:17:48.598Z,13.55
2019-06-07T02:22:51.988Z,13.21
2019-06-07T02:28:25.777Z,13.13
2019-06-07T02:33:01.241Z,13.16
2019-06-07T02:38:04.990Z,13.12
2019-06-07T02:43:08.436Z,13.08
2019-06-07T02:48:11.865Z,12.90
2019-06-07T02:53:15.267Z,12.76
2019-06-07T02:58:18.650Z,12.55
2019-06-07T03:03:22.575Z,12.62
2019-06-07T03:08:30.829Z,12.54
2019-06-07T03:13:37.511Z,12.50
2019-06-07T03:18:50.287Z,12.55
2019-06-07T03:23:57.201Z,12.28
2019-06-07T03:29:00.878Z,12.33
2019-06-07T03:34:04.346Z,12.45
2019-06-07T03:39:07.811Z,12.57
2019-06-07T03:44:11.208Z,12.75
2019-06-07T03:49:14.913Z,12.57
2019-06-07T03:54:18.314Z,12.65
2019-06-07T03:59:21.707Z,12.64
2019-06-07T04:04:25.353Z,12.60
2019-06-07T04:09:31.497Z,12.65
2019-06-07T04:14:35.194Z,12.74
2019-06-07T04:19:43.137Z,12.89
2019-06-07T04:24:44.145Z,12.99
2019-06-07T04:30:06.359Z,13.17
2019-06-07T04:34:52.668Z,13.43
2019-06-07T04:39:56.840Z,13.51
2019-06-07T04:45:00.627Z,13.64
2019-06-07T04:50:05.455Z,13.69
2019-06-07T04:55:09.232Z,13.75
2019-06-07T05:00:46.941Z,13.86
2019-06-07T05:05:18.013Z,13.97
2019-06-07T05:10:21.409Z,14.12
2019-06-07T05:15:24.885Z,14.17
2019-06-07T05:20:28.291Z,14.22
2019-06-07T05:25:33.544Z,14.28
2019-06-07T05:35:44.535Z,14.41
2019-06-07T05:40:48.959Z,14.49
2019-06-07T05:45:52.756Z,14.69
2019-06-07T05:50:57.464Z,14.72
2019-06-07T05:56:01.293Z,14.97
2019-06-07T06:01:41.598Z,15.13
2019-06-07T06:06:09.876Z,15.25
2019-06-07T06:11:13.269Z,15.62
2019-06-07T06:16:16.673Z,15.62
2019-06-07T06:21:20.562Z,15.90
2019-06-07T06:26:24.131Z,15.97
2019-06-07T06:31:27.531Z,16.08
2019-06-07T06:36:30.926Z,16.13
2019-06-07T06:41:48.458Z,16.20
2019-06-07T06:46:44.783Z,16.48
2019-06-07T06:51:50.077Z,16.25
2019-06-07T06:56:52.687Z,16.30
2019-06-07T07:01:55.663Z,16.65
2019-06-07T07:06:59.292Z,16.90
2019-06-07T07:12:11.964Z,17.15
2019-06-07T07:17:08.131Z,17.33
2019-06-07T07:22:11.755Z,17.52
2019-06-07T07:27:15.509Z,17.67
2019-06-07T07:32:19.244Z,17.80
2019-06-07T07:37:22.651Z,17.94
2019-06-07T07:42:26.029Z,18.02
2019-06-07T07:47:29.424Z,18.29
2019-06-07T07:52:33.092Z,18.57
2019-06-07T07:57:36.492Z,18.77
2019-06-07T08:02:39.895Z,18.98
2019-06-07T08:07:43.286Z,19.18
2019-06-07T08:13:11.836Z,19.39
2019-06-07T08:17:58.024Z,19.70
2019-06-07T08:22:59.776Z,19.88
2019-06-07T08:28:02.451Z,20.06
2019-06-07T08:33:25.503Z,20.34
2019-06-07T08:38:25.883Z,20.66
2019-06-07T08:43:20.775Z,20.96
2019-06-07T08:48:28.014Z,21.21
2019-06-07T08:53:26.518Z,21.43
2019-06-07T08:58:29.918Z,21.68
2019-06-07T09:03:33.316Z,21.92
2019-06-07T09:08:36.705Z,22.24
2019-06-07T09:13:40.114Z,22.47
2019-06-07T09:18:45.131Z,22.66
2019-06-07T09:23:48.690Z,22.76
2019-06-07T09:28:52.954Z,22.91
2019-06-07T09:33:59.808Z,23.08
2019-06-07T09:39:07.414Z,23.30
2019-06-07T09:44:21.092Z,23.42
2019-06-07T09:49:28.573Z,23.47
2019-06-07T09:59:23.787Z,23.52
2019-06-07T10:04:31.316Z,23.88
2019-06-07T10:14:39.038Z,24.25
2019-06-07T10:19:42.428Z,24.30
2019-06-07T10:24:45.822Z,24.68
2019-06-07T10:29:49.217Z,24.55
2019-06-07T10:34:52.692Z,24.63
2019-06-07T10:39:56.084Z,24.97
2019-06-07T10:45:02.065Z,25.37
2019-06-07T10:50:06.496Z,25.59
2019-06-07T10:55:10.626Z,25.65
2019-06-07T11:00:16.488Z,25.62
2019-06-07T11:05:20.223Z,25.85
2019-06-07T11:10:23.928Z,26.16
2019-06-07T11:15:27.321Z,26.38
2019-06-07T11:20:30.791Z,26.58
2019-06-07T11:25:34.186Z,26.89
2019-06-07T11:30:37.894Z,26.83
2019-06-07T11:35:41.289Z,26.76
2019-06-07T11:40:44.672Z,26.81
2019-06-07T11:45:48.064Z,27.21
2019-06-07T11:50:51.482Z,27.52
2019-06-07T11:55:54.897Z,27.65
2019-06-07T12:00:58.404Z,27.95
2019-06-07T12:06:01.900Z,28.09
2019-06-07T12:11:05.289Z,28.17
2019-06-07T12:16:09.126Z,27.95
2019-06-07T12:21:13.654Z,28.23
2019-06-07T12:26:18.477Z,28.29
2019-06-07T12:31:22.001Z,28.47
2019-06-07T12:36:25.392Z,28.66
2019-06-07T12:41:28.849Z,28.68
2019-06-07T12:46:32.196Z,29.00
2019-06-07T12:51:35.594Z,29.21
2019-06-07T12:56:38.993Z,28.84
2019-06-07T13:01:42.726Z,28.92
2019-06-07T13:06:46.121Z,29.57
2019-06-07T13:11:49.518Z,29.71
2019-06-07T13:16:53.173Z,29.69
2019-06-07T13:21:56.898Z,29.89
2019-06-07T13:27:00.624Z,30.10
2019-06-07T13:32:04.264Z,29.76
2019-06-07T13:37:07.958Z,29.85
2019-06-07T13:42:11.353Z,30.04
2019-06-07T13:47:14.754Z,30.36
2019-06-07T13:52:18.232Z,30.45
2019-06-07T13:57:22.223Z,30.57
2019-06-07T14:02:27.472Z,30.03
2019-06-07T14:07:31.217Z,29.89
2019-06-07T14:12:34.609Z,30.24
2019-06-07T14:17:38.006Z,30.44
2019-06-07T14:22:41.484Z,30.80
2019-06-07T14:27:45.175Z,30.94
2019-06-07T14:32:48.896Z,31.10
2019-06-07T14:37:52.365Z,30.88
2019-06-07T14:42:55.705Z,30.99
2019-06-07T14:47:59.103Z,31.46
2019-06-07T14:53:02.493Z,31.55
2019-06-07T14:58:05.890Z,31.14
2019-06-07T15:03:09.419Z,31.48
2019-06-07T15:08:12.818Z,31.86
2019-06-07T15:13:16.208Z,31.82
2019-06-07T15:18:19.668Z,31.79
2019-06-07T15:23:23.311Z,31.67
2019-06-07T15:28:27.656Z,31.95
2019-06-07T15:33:31.832Z,32.13
2019-06-07T15:38:37.059Z,32.27
2019-06-07T15:43:40.896Z,32.41
2019-06-07T15:48:44.617Z,31.81
2019-06-07T15:53:48.021Z,31.56
2019-06-07T15:58:51.472Z,31.39
2019-06-07T16:03:54.868Z,31.69
2019-06-07T16:08:58.263Z,31.91
2019-06-07T16:14:01.653Z,31.93
2019-06-07T16:19:05.138Z,31.85
2019-06-07T16:24:08.541Z,31.89
2019-06-07T16:29:11.965Z,31.95
2019-06-07T16:34:15.357Z,31.38
2019-06-07T16:39:18.757Z,31.32
2019-06-07T16:44:22.155Z,31.50
2019-06-07T16:49:25.547Z,31.77
2019-06-07T16:54:29.207Z,31.86
2019-06-07T16:59:32.652Z,31.28
2019-06-07T17:04:37.380Z,31.12
2019-06-07T17:09:42.134Z,31.23
2019-06-07T17:14:46.629Z,31.05
2019-06-07T17:19:50.026Z,30.69
2019-06-07T17:24:53.420Z,30.76
2019-06-07T17:29:57.106Z,30.53
2019-06-07T17:35:00.734Z,30.45
2019-06-07T17:40:06.117Z,30.79
2019-06-07T17:45:10.350Z,30.56
2019-06-07T17:50:14.404Z,30.50
2019-06-07T17:55:19.042Z,30.31
2019-06-07T18:00:33.329Z,30.02
2019-06-07T18:05:28.634Z,30.13
2019-06-07T18:10:37.881Z,30.09
2019-06-07T18:15:52.951Z,29.93
2019-06-07T18:20:53.479Z,29.69
2019-06-07T18:25:57.274Z,29.59
2019-06-07T18:31:00.905Z,29.43
2019-06-07T18:36:05.030Z,28.99
2019-06-07T18:41:08.426Z,28.57
2019-06-07T18:46:11.823Z,28.33
2019-06-07T18:51:15.411Z,27.73
2019-06-07T18:56:19.024Z,27.28
2019-06-07T19:01:22.421Z,26.67
2019-06-07T19:06:25.845Z,26.13
2019-06-07T19:11:29.278Z,26.01
2019-06-07T19:16:32.679Z,26.06
2019-06-07T19:21:36.089Z,25.55
2019-06-07T19:26:39.486Z,25.12
2019-06-07T19:31:42.884Z,25.08
2019-06-07T19:36:49.043Z,24.77
2019-06-07T19:41:54.027Z,24.30
2019-06-07T19:46:58.491Z,24.31
2019-06-07T19:52:03.153Z,24.12
2019-06-07T19:57:06.945Z,23.92
2019-06-07T20:02:10.398Z,23.73
2019-06-07T20:07:13.790Z,23.19
2019-06-07T20:12:17.189Z,22.83
2019-06-07T20:17:20.751Z,22.82
2019-06-07T20:22:24.147Z,22.28
2019-06-07T20:27:27.790Z,22.03
2019-06-07T20:32:31.202Z,22.17
2019-06-07T20:37:34.859Z,22.37
2019-06-07T20:42:38.544Z,22.19
2019-06-07T20:47:41.943Z,21.27
2019-06-07T20:52:45.337Z,21.63
2019-06-07T20:57:48.734Z,21.66
2019-06-07T21:02:52.139Z,21.37
2019-06-07T21:07:55.857Z,20.83
2019-06-07T21:12:59.736Z,20.32
2019-06-07T21:18:04.912Z,19.60
2019-06-07T21:23:09.020Z,19.02
2019-06-07T21:28:12.798Z,18.91
2019-06-07T21:33:16.191Z,18.57
2019-06-07T21:38:19.827Z,18.32
2019-06-07T21:43:23.231Z,18.11
2019-06-07T21:48:26.684Z,17.92
2019-06-07T21:53:30.084Z,17.75
2019-06-07T21:58:33.752Z,17.57
2019-06-07T22:03:37.146Z,17.51
2019-06-07T22:08:41.642Z,17.35
2019-06-07T22:13:45.402Z,17.35
2019-06-07T22:18:48.774Z,17.30
2019-06-07T22:23:52.498Z,17.29
2019-06-07T22:28:56.358Z,17.22
2019-06-07T22:33:59.751Z,17.07
2019-06-07T22:39:03.618Z,17.07
2019-06-07T22:44:07.163Z,16.99
2019-06-07T22:49:11.375Z,16.96
2019-06-07T22:54:16.070Z,17.02
2019-06-07T22:59:20.608Z,16.93
2019-06-07T23:04:24.079Z,16.93
2019-06-07T23:09:27.485Z,16.88
2019-06-07T23:14:30.978Z,16.86
2019-06-07T23:19:34.608Z,16.82
2019-06-07T23:24:38.005Z,16.79
2019-06-07T23:29:41.400Z,16.74
2019-06-07T23:34:44.826Z,16.66
2019-06-07T23:39:48.523Z,16.55
2019-06-07T23:44:52.244Z,16.52
2019-06-07T23:49:55.641Z,16.61
2019-06-07T23:54:59.033Z,16.70
